Strona główna
METAR-TAF:

METAR-TAF

Lotnisko :

Brookhaven Airport

Shirley, Nowy Jork, Stany Zjednoczone

Szerokość geograficzna: 40-49-18N, Długość geograficzna: 072-52-08W, wysokość: 25 m

Aktualna obserwacja pogody

Raport powstał 47 minut temu, godzina 10:56 UTC
Wiatr 8 kt od południowo-południowy wschód
Temperatura 21°C
Wilgotność 88%
Ciśnienie 1011 hPa
Widzialność: 16.1 km
Zachmurzenie całkowite na wysokości 700 ft

METAR: KHWV 251056Z AUTO 16008KT 10SM OVC007 21/19 A2985 RMK AO2 RAE00 SLP107 P0000 T02110189

czas: 07:43 (11:43 UTC)


TAF: brakujący

Obserwacja i prognoza pogody dla ponad 4000 lotnisk (raport METAR i TAF).

Dostępne stacje oznaczono żółtymi i czerwonymi punktami na mapie.

Najedź kursorem aby zobaczyć nazwę stacji.

Kliknij aby zobaczyć obserwacje i prognozy pogody.

Aby zmienić mapę: kliknij na zielony przycisk z czarnym krzyżykiem, aby powiększyć; na zielony przycisk z myślnikiem, aby pomniejszyć; na zielone strzałki, aby przejść do map sąsiednich.


METAR-TAF: